createdAt,value
2018-04-30T00:00:39.743Z,0.00
2018-04-30T00:01:39.769Z,0.00
2018-04-30T00:02:39.795Z,0.00
2018-04-30T00:03:39.807Z,0.00
2018-04-30T00:04:39.833Z,0.00
2018-04-30T00:05:39.859Z,0.00
2018-04-30T00:06:39.873Z,0.00
2018-04-30T00:07:39.899Z,0.00
2018-04-30T00:08:39.926Z,0.00
2018-04-30T00:09:39.939Z,0.00
2018-04-30T00:10:39.965Z,0.00
2018-04-30T00:11:39.991Z,0.00
2018-04-30T00:12:40.004Z,0.00
2018-04-30T00:13:40.034Z,0.00
2018-04-30T00:14:40.056Z,0.00
2018-04-30T00:15:40.069Z,0.00
2018-04-30T00:16:40.095Z,0.00
2018-04-30T00:17:40.120Z,0.00
2018-04-30T00:18:40.136Z,0.00
2018-04-30T00:19:40.162Z,0.00
2018-04-30T00:20:40.187Z,0.00
2018-04-30T00:21:40.199Z,0.00
2018-04-30T00:23:40.252Z,0.00
2018-04-30T00:24:40.266Z,0.00
2018-04-30T00:25:40.291Z,0.00
2018-04-30T00:26:40.317Z,0.00
2018-04-30T00:27:40.344Z,0.00
2018-04-30T00:28:40.356Z,0.00
2018-04-30T00:29:40.382Z,0.00
2018-04-30T00:30:40.399Z,0.00
2018-04-30T00:31:40.426Z,0.00
2018-04-30T00:32:40.449Z,0.00
2018-04-30T00:33:40.473Z,0.00
2018-04-30T00:34:40.487Z,0.00
2018-04-30T00:35:40.514Z,0.00
2018-04-30T00:36:40.542Z,0.00
2018-04-30T00:37:40.555Z,0.00
2018-04-30T00:38:40.578Z,0.00
2018-04-30T00:39:40.592Z,0.00
2018-04-30T00:40:40.618Z,0.00
2018-04-30T00:41:40.644Z,0.00
2018-04-30T00:42:40.660Z,0.00
2018-04-30T00:43:40.684Z,0.00
2018-04-30T00:44:40.710Z,0.00
2018-04-30T00:45:40.722Z,0.00
2018-04-30T00:46:40.749Z,0.00
2018-04-30T00:47:40.779Z,0.00
2018-04-30T00:48:40.789Z,0.00
2018-04-30T00:49:40.818Z,0.00
2018-04-30T00:50:41.042Z,0.00
2018-04-30T00:51:40.854Z,0.00
2018-04-30T00:52:40.879Z,0.00
2018-04-30T00:53:40.909Z,0.00
2018-04-30T00:54:40.919Z,0.00
2018-04-30T00:55:40.949Z,0.00
2018-04-30T00:56:40.972Z,0.00
2018-04-30T00:57:40.984Z,0.00
2018-04-30T00:58:41.011Z,0.00
2018-04-30T00:59:41.036Z,0.00
2018-04-30T01:00:41.051Z,0.00
2018-04-30T01:01:41.278Z,0.00
2018-04-30T01:02:41.105Z,0.00
2018-04-30T01:03:41.161Z,0.00
2018-04-30T01:04:41.157Z,0.00
2018-04-30T01:05:41.155Z,0.00
2018-04-30T01:06:41.181Z,0.00
2018-04-30T01:07:41.211Z,0.00
2018-04-30T01:08:41.571Z,0.00
2018-04-30T01:09:41.247Z,0.00
2018-04-30T01:10:41.271Z,0.00
2018-04-30T01:11:41.287Z,0.00
2018-04-30T01:12:41.311Z,0.00
2018-04-30T01:13:41.339Z,0.00
2018-04-30T01:14:41.352Z,0.00
2018-04-30T01:15:41.376Z,0.00
2018-04-30T01:16:41.402Z,0.00
2018-04-30T01:17:41.418Z,0.00
2018-04-30T01:18:41.443Z,0.00
2018-04-30T01:19:41.468Z,0.00
2018-04-30T01:20:41.481Z,0.00
2018-04-30T01:21:41.569Z,0.00
2018-04-30T01:22:41.533Z,0.00
2018-04-30T01:23:41.547Z,0.00
2018-04-30T01:24:41.575Z,0.00
2018-04-30T01:25:41.587Z,0.00
2018-04-30T01:26:41.962Z,0.00
2018-04-30T01:27:41.638Z,0.00
2018-04-30T01:28:41.653Z,0.00
2018-04-30T01:29:41.679Z,0.00
2018-04-30T01:30:41.704Z,0.00
2018-04-30T01:31:41.730Z,0.00
2018-04-30T01:32:41.742Z,0.00
2018-04-30T01:33:41.769Z,0.00
2018-04-30T01:34:41.794Z,0.00
2018-04-30T01:35:41.809Z,0.00
2018-04-30T01:36:41.836Z,0.00
2018-04-30T01:37:41.848Z,0.00
2018-04-30T01:38:41.887Z,0.00
2018-04-30T01:39:41.899Z,0.00
2018-04-30T01:40:41.915Z,0.00
2018-04-30T01:41:41.939Z,0.00
2018-04-30T01:42:41.953Z,0.00
2018-04-30T01:43:41.978Z,0.00
2018-04-30T01:44:42.005Z,0.00
2018-04-30T01:45:42.019Z,0.00
2018-04-30T01:46:42.045Z,0.00
2018-04-30T01:47:42.071Z,0.00
2018-04-30T01:48:42.083Z,0.00
2018-04-30T01:49:42.111Z,0.00
2018-04-30T01:50:42.136Z,0.00
2018-04-30T01:51:42.149Z,0.00
2018-04-30T01:52:42.175Z,0.00
2018-04-30T01:53:42.189Z,0.00
2018-04-30T01:54:42.215Z,0.00
2018-04-30T01:55:42.240Z,0.00
2018-04-30T01:56:42.255Z,0.00
2018-04-30T01:57:42.280Z,0.00
2018-04-30T01:58:42.306Z,0.00
2018-04-30T01:59:42.318Z,0.00
2018-04-30T02:00:42.346Z,0.00
2018-04-30T02:01:42.370Z,0.00
2018-04-30T02:02:42.390Z,0.00
2018-04-30T02:03:42.411Z,0.00
2018-04-30T02:04:42.424Z,0.00
2018-04-30T02:05:42.450Z,0.00
2018-04-30T02:06:42.478Z,0.00
2018-04-30T02:07:42.492Z,0.00
2018-04-30T02:08:42.515Z,0.00
2018-04-30T02:09:42.541Z,0.00
2018-04-30T02:10:42.555Z,0.00
2018-04-30T02:11:42.580Z,0.00
2018-04-30T02:12:42.595Z,0.00
2018-04-30T02:13:42.620Z,0.00
2018-04-30T02:14:42.647Z,0.00
2018-04-30T02:15:42.659Z,0.00
2018-04-30T02:16:42.686Z,0.00
2018-04-30T02:17:42.711Z,0.00
2018-04-30T02:18:42.728Z,0.00
2018-04-30T02:19:42.818Z,0.00
2018-04-30T02:20:42.764Z,0.00
2018-04-30T02:21:42.790Z,0.00
2018-04-30T02:22:42.816Z,0.00
2018-04-30T02:23:42.831Z,0.00
2018-04-30T02:24:42.856Z,0.00
2018-04-30T02:25:42.871Z,0.00
2018-04-30T02:26:42.895Z,0.00
2018-04-30T02:27:42.922Z,0.00
2018-04-30T02:28:42.947Z,0.00
2018-04-30T02:29:42.962Z,0.00
2018-04-30T02:30:42.988Z,0.00
2018-04-30T02:31:43.001Z,0.00
2018-04-30T02:32:43.027Z,0.00
2018-04-30T02:33:43.080Z,0.00
2018-04-30T02:34:43.070Z,0.00
2018-04-30T02:35:43.092Z,0.00
2018-04-30T02:36:43.105Z,0.00
2018-04-30T02:37:43.131Z,0.00
2018-04-30T02:38:43.157Z,0.00
2018-04-30T02:39:43.171Z,0.00
2018-04-30T02:40:43.197Z,0.00
2018-04-30T02:41:43.211Z,0.00
2018-04-30T02:42:43.236Z,0.00
2018-04-30T02:43:43.263Z,0.00
2018-04-30T02:44:43.276Z,0.00
2018-04-30T02:45:43.302Z,0.00
2018-04-30T02:46:43.327Z,0.00
2018-04-30T02:47:43.341Z,0.00
2018-04-30T02:48:43.367Z,0.00
2018-04-30T02:49:43.380Z,0.00
2018-04-30T02:50:43.407Z,0.00
2018-04-30T02:51:43.454Z,0.00
2018-04-30T02:52:43.466Z,0.00
2018-04-30T02:53:43.493Z,0.00
2018-04-30T02:54:43.507Z,0.00
2018-04-30T02:55:43.531Z,0.00
2018-04-30T02:56:43.558Z,0.00
2018-04-30T02:57:43.572Z,0.00
2018-04-30T02:58:43.599Z,0.00
2018-04-30T02:59:43.623Z,0.00
2018-04-30T03:00:43.629Z,0.00
2018-04-30T03:01:43.657Z,0.00
2018-04-30T03:02:43.668Z,0.00
2018-04-30T03:03:43.693Z,0.00
2018-04-30T03:04:43.720Z,0.00
2018-04-30T03:05:43.734Z,0.00
2018-04-30T03:06:43.763Z,0.00
2018-04-30T03:07:43.775Z,0.00
2018-04-30T03:08:43.799Z,0.00
2018-04-30T03:09:43.859Z,0.00
2018-04-30T03:10:43.826Z,0.00
2018-04-30T03:11:43.852Z,0.00
2018-04-30T03:12:43.867Z,0.00
2018-04-30T03:13:43.891Z,0.00
2018-04-30T03:14:43.916Z,0.00
2018-04-30T03:15:43.933Z,0.00
2018-04-30T03:16:43.957Z,0.00
2018-04-30T03:17:43.970Z,0.00
2018-04-30T03:18:43.996Z,0.00
2018-04-30T03:19:44.035Z,0.00
2018-04-30T03:20:44.036Z,0.00
2018-04-30T03:21:44.061Z,0.00
2018-04-30T03:22:44.088Z,0.00
2018-04-30T03:23:44.100Z,0.00
2018-04-30T03:24:44.139Z,0.00
2018-04-30T03:25:44.145Z,0.00
2018-04-30T03:26:44.165Z,0.00
2018-04-30T03:27:44.191Z,0.00
2018-04-30T03:28:44.204Z,5.63
2018-04-30T03:29:44.231Z,5.63
2018-04-30T03:30:44.244Z,5.63
2018-04-30T03:31:44.271Z,5.63
2018-04-30T03:32:44.283Z,5.63
2018-04-30T03:33:44.311Z,5.63
2018-04-30T03:34:44.336Z,5.63
2018-04-30T03:35:44.350Z,11.25
2018-04-30T03:36:44.376Z,11.25
2018-04-30T03:37:44.388Z,11.25
2018-04-30T03:38:44.427Z,11.25
2018-04-30T03:39:44.441Z,11.25
2018-04-30T03:40:44.454Z,11.25
2018-04-30T03:41:44.484Z,16.88
2018-04-30T03:42:44.495Z,16.88
2018-04-30T03:43:44.518Z,16.88
2018-04-30T03:44:44.545Z,22.50
2018-04-30T03:45:44.560Z,22.50
2018-04-30T03:46:44.586Z,22.50
2018-04-30T03:47:44.598Z,22.50
2018-04-30T03:48:44.624Z,28.13
2018-04-30T03:49:44.699Z,28.13
2018-04-30T03:50:44.665Z,28.13
2018-04-30T03:51:44.690Z,33.75
2018-04-30T03:52:44.715Z,33.75
2018-04-30T03:53:44.730Z,33.75
2018-04-30T03:54:44.744Z,39.38
2018-04-30T03:55:44.768Z,39.38
2018-04-30T03:56:44.795Z,39.38
2018-04-30T03:57:44.807Z,39.38
2018-04-30T03:58:44.837Z,45.00
2018-04-30T03:59:44.848Z,45.00
2018-04-30T04:00:44.878Z,45.00
2018-04-30T04:01:44.900Z,50.63
2018-04-30T04:02:44.913Z,50.63
2018-04-30T04:03:44.938Z,50.63
2018-04-30T04:04:44.953Z,56.25
2018-04-30T04:05:44.979Z,56.25
2018-04-30T04:06:45.004Z,61.88
2018-04-30T04:07:45.018Z,61.88
2018-04-30T04:08:45.045Z,61.88
2018-04-30T04:09:45.058Z,67.50
2018-04-30T04:10:45.084Z,67.50
2018-04-30T04:11:45.098Z,73.13
2018-04-30T04:12:45.187Z,73.13
2018-04-30T04:13:45.150Z,78.75
2018-04-30T04:14:45.162Z,78.75
2018-04-30T04:15:45.189Z,84.38
2018-04-30T04:16:45.202Z,84.38
2018-04-30T04:17:45.227Z,90.00
2018-04-30T04:18:45.244Z,90.00
2018-04-30T04:19:45.267Z,95.63
2018-04-30T04:20:45.298Z,95.63
2018-04-30T04:21:45.309Z,101.25
2018-04-30T04:22:45.332Z,101.25
2018-04-30T04:23:45.345Z,106.88
2018-04-30T04:24:45.372Z,106.88
2018-04-30T04:25:45.401Z,112.50
2018-04-30T04:26:45.411Z,112.50
2018-04-30T04:27:45.438Z,118.13
2018-04-30T04:28:45.459Z,118.13
2018-04-30T04:29:45.478Z,123.75
2018-04-30T04:30:45.491Z,123.75
2018-04-30T04:31:45.516Z,129.38
2018-04-30T04:32:45.541Z,129.38
2018-04-30T04:33:45.555Z,129.38
2018-04-30T04:34:45.583Z,135.00
2018-04-30T04:35:45.595Z,135.00
2018-04-30T04:36:45.620Z,135.00
2018-04-30T04:37:45.648Z,140.63
2018-04-30T04:38:45.660Z,140.63
2018-04-30T04:39:45.687Z,146.25
2018-04-30T04:40:45.699Z,151.88
2018-04-30T04:41:45.783Z,163.13
2018-04-30T04:42:45.752Z,168.75
2018-04-30T04:43:45.765Z,180.00
2018-04-30T04:44:45.791Z,185.63
2018-04-30T04:45:45.805Z,196.88
2018-04-30T04:46:45.831Z,202.50
2018-04-30T04:47:45.857Z,202.50
2018-04-30T04:48:45.870Z,208.13
2018-04-30T04:49:45.896Z,213.75
2018-04-30T04:50:45.910Z,219.38
2018-04-30T04:51:45.935Z,225.00
2018-04-30T04:52:45.949Z,225.00
2018-04-30T04:53:45.975Z,225.00
2018-04-30T04:54:46.003Z,225.00
2018-04-30T04:55:46.014Z,225.00
2018-04-30T04:56:46.040Z,225.00
2018-04-30T04:57:46.065Z,236.25
2018-04-30T04:58:46.113Z,247.50
2018-04-30T04:59:46.106Z,270.00
2018-04-30T05:00:46.119Z,292.50
2018-04-30T05:01:46.145Z,320.63
2018-04-30T05:02:46.170Z,354.38
2018-04-30T05:03:46.185Z,376.88
2018-04-30T05:04:46.211Z,382.50
2018-04-30T05:05:46.223Z,371.25
2018-04-30T05:06:46.253Z,354.38
2018-04-30T05:07:46.276Z,337.50
2018-04-30T05:08:46.290Z,331.88
2018-04-30T05:09:46.316Z,331.88
2018-04-30T05:10:46.347Z,343.13
2018-04-30T05:11:46.358Z,348.75
2018-04-30T05:12:46.380Z,343.13
2018-04-30T05:13:46.407Z,337.50
2018-04-30T05:14:46.420Z,320.63
2018-04-30T05:15:46.447Z,309.38
2018-04-30T05:16:46.464Z,292.50
2018-04-30T05:17:46.485Z,281.25
2018-04-30T05:18:46.510Z,275.63
2018-04-30T05:19:46.525Z,270.00
2018-04-30T05:20:46.552Z,275.63
2018-04-30T05:21:46.579Z,286.88
2018-04-30T05:22:46.591Z,315.00
2018-04-30T05:23:46.615Z,343.13
2018-04-30T05:24:46.644Z,376.88
2018-04-30T05:25:46.656Z,410.63
2018-04-30T05:26:46.683Z,444.38
2018-04-30T05:27:46.709Z,466.88
2018-04-30T05:28:46.723Z,489.38
2018-04-30T05:29:46.746Z,500.63
2018-04-30T05:30:46.781Z,500.63
2018-04-30T05:31:46.802Z,500.63
2018-04-30T05:32:46.814Z,500.63
2018-04-30T05:33:46.853Z,495.00
2018-04-30T05:34:46.852Z,511.88
2018-04-30T05:35:46.879Z,534.38
2018-04-30T05:36:46.904Z,534.38
2018-04-30T05:37:46.929Z,523.13
2018-04-30T05:38:46.943Z,511.88
2018-04-30T05:39:46.969Z,500.63
2018-04-30T05:40:46.996Z,489.38
2018-04-30T05:41:47.008Z,483.75
2018-04-30T05:42:47.034Z,466.88
2018-04-30T05:43:47.060Z,461.25
2018-04-30T05:44:47.091Z,455.63
2018-04-30T05:45:47.100Z,472.50
2018-04-30T05:46:47.126Z,489.38
2018-04-30T05:47:47.152Z,506.25
2018-04-30T05:48:47.166Z,500.63
2018-04-30T05:49:47.204Z,483.75
2018-04-30T05:50:47.217Z,483.75
2018-04-30T05:51:47.243Z,489.38
2018-04-30T05:52:47.259Z,483.75
2018-04-30T05:53:47.285Z,450.00
2018-04-30T05:54:47.311Z,438.75
2018-04-30T05:55:47.339Z,427.50
2018-04-30T05:56:47.353Z,399.38
2018-04-30T05:57:47.375Z,360.00
2018-04-30T05:58:47.400Z,371.25
2018-04-30T05:59:47.427Z,382.50
2018-04-30T06:00:47.456Z,388.13
2018-04-30T06:01:47.467Z,393.75
2018-04-30T06:02:47.492Z,399.38
2018-04-30T06:03:47.518Z,393.75
2018-04-30T06:04:47.544Z,399.38
2018-04-30T06:05:47.557Z,405.00
2018-04-30T06:06:47.598Z,410.63
2018-04-30T06:07:47.608Z,416.25
2018-04-30T06:08:47.636Z,421.88
2018-04-30T06:09:47.649Z,416.25
2018-04-30T06:10:47.679Z,466.88
2018-04-30T06:11:47.701Z,500.63
2018-04-30T06:12:47.727Z,517.50
2018-04-30T06:13:47.741Z,511.88
2018-04-30T06:14:47.765Z,478.13
2018-04-30T06:15:47.793Z,517.50
2018-04-30T06:16:47.824Z,551.25
2018-04-30T06:17:47.833Z,613.13
2018-04-30T06:18:47.857Z,545.63
2018-04-30T06:19:47.884Z,697.50
2018-04-30T06:20:47.910Z,1085.63
2018-04-30T06:21:47.923Z,1361.25
2018-04-30T06:22:47.948Z,1400.63
2018-04-30T06:23:47.974Z,1411.88
2018-04-30T06:24:48.000Z,1400.63
2018-04-30T06:25:48.026Z,1434.38
2018-04-30T06:26:48.165Z,1428.75
2018-04-30T06:27:48.067Z,1462.50
2018-04-30T06:28:48.092Z,1507.50
2018-04-30T06:29:48.120Z,1496.25
2018-04-30T06:30:48.147Z,1518.75
2018-04-30T06:31:48.170Z,1524.38
2018-04-30T06:32:48.195Z,1558.13
2018-04-30T06:33:48.211Z,1541.25
2018-04-30T06:34:48.252Z,1558.13
2018-04-30T06:35:48.306Z,1535.63
2018-04-30T06:36:48.287Z,1546.88
2018-04-30T06:37:48.313Z,1541.25
2018-04-30T06:38:48.339Z,1530.00
2018-04-30T06:39:48.366Z,1552.50
2018-04-30T06:40:48.391Z,1552.50
2018-04-30T06:41:48.417Z,1558.13
2018-04-30T06:42:48.442Z,1563.75
2018-04-30T06:43:48.484Z,1546.88
2018-04-30T06:44:48.497Z,1558.13
2018-04-30T06:45:48.520Z,1558.13
2018-04-30T06:46:48.546Z,1563.75
2018-04-30T06:47:48.572Z,1591.88
2018-04-30T06:48:48.598Z,1614.38
2018-04-30T06:49:48.637Z,1636.88
2018-04-30T06:50:48.656Z,1648.13
2018-04-30T06:51:48.692Z,1625.63
2018-04-30T06:52:48.716Z,1603.13
2018-04-30T06:53:48.741Z,1653.75
2018-04-30T06:54:48.770Z,1676.25
2018-04-30T06:55:48.794Z,1687.50
2018-04-30T06:56:48.820Z,1732.50
2018-04-30T06:57:48.845Z,1738.13
2018-04-30T06:58:48.872Z,1704.38
2018-04-30T06:59:48.909Z,1755.00
2018-04-30T07:00:48.935Z,1816.88
2018-04-30T07:01:48.960Z,1828.13
2018-04-30T07:02:48.986Z,1822.50
2018-04-30T07:03:49.026Z,1805.63
2018-04-30T07:04:49.039Z,1833.75
2018-04-30T07:05:49.078Z,1873.13
2018-04-30T07:06:49.104Z,1788.75
2018-04-30T07:07:49.130Z,1631.25
2018-04-30T07:08:49.157Z,1451.25
2018-04-30T07:09:49.194Z,1558.13
2018-04-30T07:10:49.219Z,1732.50
2018-04-30T07:11:49.248Z,1749.38
2018-04-30T07:12:49.271Z,1794.38
2018-04-30T07:13:49.311Z,1530.00
2018-04-30T07:14:49.337Z,1760.63
2018-04-30T07:15:49.363Z,1693.13
2018-04-30T07:16:49.392Z,1631.25
2018-04-30T07:17:49.426Z,1726.88
2018-04-30T07:18:49.452Z,1974.38
2018-04-30T07:19:49.491Z,1918.13
2018-04-30T07:20:49.505Z,1901.25
2018-04-30T07:21:49.544Z,1890.00
2018-04-30T07:22:49.574Z,1704.38
2018-04-30T07:23:49.608Z,1929.38
2018-04-30T07:24:49.646Z,1963.13
2018-04-30T07:25:49.659Z,1918.13
2018-04-30T07:26:49.686Z,1985.63
2018-04-30T07:27:49.799Z,2019.38
2018-04-30T07:28:49.751Z,2070.00
2018-04-30T07:29:49.776Z,2210.63
2018-04-30T07:30:49.815Z,2120.63
2018-04-30T07:31:49.839Z,2092.50
2018-04-30T07:32:49.867Z,2143.13
2018-04-30T07:33:49.905Z,2205.00
2018-04-30T07:34:49.934Z,2160.00
2018-04-30T07:35:49.968Z,2193.75
2018-04-30T07:36:49.994Z,2244.38
2018-04-30T07:37:50.034Z,2238.75
2018-04-30T07:38:50.063Z,2261.25
2018-04-30T07:39:50.097Z,2283.75
2018-04-30T07:40:50.124Z,2345.63
2018-04-30T07:41:50.149Z,2323.13
2018-04-30T07:42:50.188Z,2351.25
2018-04-30T07:43:50.215Z,2401.88
2018-04-30T07:44:50.252Z,2356.88
2018-04-30T07:45:50.292Z,2486.25
2018-04-30T07:46:50.318Z,2531.25
2018-04-30T07:47:50.344Z,2491.88
2018-04-30T07:48:50.374Z,2475.00
2018-04-30T07:49:50.410Z,2435.63
2018-04-30T07:50:50.434Z,2441.25
2018-04-30T07:51:50.473Z,2441.25
2018-04-30T07:52:50.523Z,2463.75
2018-04-30T07:53:50.535Z,2581.88
2018-04-30T07:54:50.575Z,2576.25
2018-04-30T07:55:50.600Z,2610.00
2018-04-30T07:56:50.639Z,2559.38
2018-04-30T07:57:50.666Z,2593.13
2018-04-30T07:58:50.706Z,2536.88
2018-04-30T07:59:50.732Z,2587.50
2018-04-30T08:00:50.768Z,2581.88
2018-04-30T08:01:50.796Z,2604.38
2018-04-30T08:02:50.833Z,2610.00
2018-04-30T08:03:50.872Z,2711.25
2018-04-30T08:04:50.896Z,2626.88
2018-04-30T08:05:50.936Z,2615.63
2018-04-30T08:06:50.974Z,1839.38
2018-04-30T08:07:51.002Z,849.38
2018-04-30T08:08:51.042Z,646.88
2018-04-30T08:09:51.064Z,635.63
2018-04-30T08:10:51.103Z,624.38
2018-04-30T08:11:51.143Z,618.75
2018-04-30T08:12:51.168Z,613.13
2018-04-30T08:13:51.205Z,607.50
2018-04-30T08:14:51.269Z,607.50
2018-04-30T08:15:51.270Z,590.63
2018-04-30T08:16:51.296Z,585.00
2018-04-30T08:17:51.336Z,585.00
2018-04-30T08:18:51.360Z,585.00
2018-04-30T08:19:51.405Z,585.00
2018-04-30T08:20:51.425Z,585.00
2018-04-30T08:21:51.462Z,590.63
2018-04-30T08:22:51.490Z,585.00
2018-04-30T08:23:51.519Z,585.00
2018-04-30T08:24:51.544Z,585.00
2018-04-30T08:25:51.580Z,579.38
2018-04-30T08:26:51.610Z,579.38
2018-04-30T08:27:51.643Z,579.38
2018-04-30T08:28:51.670Z,573.75
2018-04-30T08:29:51.696Z,579.38
2018-04-30T08:30:51.724Z,585.00
2018-04-30T08:31:51.760Z,585.00
2018-04-30T08:32:51.793Z,590.63
2018-04-30T08:33:51.812Z,590.63
2018-04-30T08:34:51.850Z,596.25
2018-04-30T08:35:51.890Z,596.25
2018-04-30T08:36:51.904Z,601.88
2018-04-30T08:38:52.031Z,596.25
2018-04-30T08:39:51.994Z,601.88
2018-04-30T08:40:52.020Z,596.25
2018-04-30T08:41:52.045Z,596.25
2018-04-30T08:42:52.073Z,596.25
2018-04-30T08:43:52.109Z,596.25
2018-04-30T08:44:52.134Z,596.25
2018-04-30T08:45:52.162Z,601.88
2018-04-30T08:46:52.189Z,607.50
2018-04-30T08:47:52.213Z,624.38
2018-04-30T08:48:52.239Z,624.38
2018-04-30T08:49:52.278Z,641.25
2018-04-30T08:50:52.304Z,646.88
2018-04-30T08:51:52.330Z,646.88
2018-04-30T08:52:52.356Z,652.50
2018-04-30T08:53:52.384Z,646.88
2018-04-30T08:54:52.420Z,641.25
2018-04-30T08:55:52.446Z,635.63
2018-04-30T08:56:52.476Z,652.50
2018-04-30T08:57:52.498Z,646.88
2018-04-30T08:58:52.524Z,635.63
2018-04-30T08:59:52.569Z,646.88
2018-04-30T09:00:52.589Z,652.50
2018-04-30T09:01:52.615Z,658.13
2018-04-30T09:02:52.641Z,646.88
2018-04-30T09:03:52.869Z,641.25
2018-04-30T09:04:52.692Z,646.88
2018-04-30T09:05:52.734Z,652.50
2018-04-30T09:06:52.959Z,663.75
2018-04-30T09:07:52.782Z,680.63
2018-04-30T09:08:52.809Z,697.50
2018-04-30T09:09:52.834Z,703.13
2018-04-30T09:10:52.861Z,703.13
2018-04-30T09:11:52.903Z,714.38
2018-04-30T09:12:52.925Z,725.63
2018-04-30T09:13:52.952Z,714.38
2018-04-30T09:14:53.027Z,703.13
2018-04-30T09:15:53.004Z,691.88
2018-04-30T09:16:53.053Z,680.63
2018-04-30T09:17:53.067Z,680.63
2018-04-30T09:18:53.093Z,680.63
2018-04-30T09:20:53.146Z,680.63
2018-04-30T09:21:53.183Z,675.00
2018-04-30T09:22:53.209Z,675.00
2018-04-30T09:23:53.257Z,669.38
2018-04-30T09:24:53.262Z,669.38
2018-04-30T09:25:53.288Z,669.38
2018-04-30T09:26:53.326Z,680.63
2018-04-30T09:27:53.353Z,691.88
2018-04-30T09:28:53.379Z,691.88
2018-04-30T09:29:53.416Z,686.25
2018-04-30T09:30:53.442Z,691.88
2018-04-30T09:31:53.468Z,703.13
2018-04-30T09:32:53.496Z,703.13
2018-04-30T09:33:53.520Z,708.75
2018-04-30T09:34:53.559Z,720.00
2018-04-30T09:35:53.573Z,731.25
2018-04-30T09:36:53.600Z,742.50
2018-04-30T09:37:53.886Z,748.13
2018-04-30T09:38:53.662Z,742.50
2018-04-30T09:39:53.688Z,720.00
2018-04-30T09:40:53.725Z,720.00
2018-04-30T09:41:53.741Z,725.63
2018-04-30T09:42:53.779Z,742.50
2018-04-30T09:43:53.805Z,753.75
2018-04-30T09:44:53.830Z,708.75
2018-04-30T09:45:53.857Z,838.13
2018-04-30T09:46:53.895Z,838.13
2018-04-30T09:47:53.922Z,832.50
2018-04-30T09:48:53.948Z,826.88
2018-04-30T09:49:53.972Z,843.75
2018-04-30T09:50:53.999Z,911.25
2018-04-30T09:51:54.042Z,1035.00
2018-04-30T09:52:54.065Z,1670.63
2018-04-30T09:53:54.090Z,2806.88
2018-04-30T09:54:54.117Z,3391.88
2018-04-30T09:55:54.153Z,3436.88
2018-04-30T09:56:54.182Z,2514.38
2018-04-30T09:57:54.230Z,1546.88
2018-04-30T09:58:54.231Z,1164.38
2018-04-30T09:59:54.271Z,1344.38
2018-04-30T10:00:54.296Z,1366.88
2018-04-30T10:01:54.322Z,1282.50
2018-04-30T10:02:54.361Z,3110.63
2018-04-30T10:03:54.387Z,2131.88
2018-04-30T10:04:54.412Z,1597.50
2018-04-30T10:05:54.440Z,1411.88
2018-04-30T10:06:54.477Z,1451.25
2018-04-30T10:07:54.505Z,1198.13
2018-04-30T10:08:54.541Z,1006.88
2018-04-30T10:09:54.569Z,961.88
2018-04-30T10:10:54.593Z,843.75
2018-04-30T10:11:54.633Z,1040.63
2018-04-30T10:12:54.670Z,1468.13
2018-04-30T10:13:54.685Z,2289.38
2018-04-30T10:14:54.725Z,3234.38
2018-04-30T10:15:54.748Z,1220.63
2018-04-30T10:16:54.988Z,1198.13
2018-04-30T10:17:54.813Z,1653.75
2018-04-30T10:18:54.839Z,2216.25
2018-04-30T10:19:54.889Z,1321.88
2018-04-30T10:20:54.906Z,1080.00
2018-04-30T10:21:54.935Z,1170.00
2018-04-30T10:22:54.968Z,1243.13
2018-04-30T10:23:55.018Z,1417.50
2018-04-30T10:24:55.032Z,1203.75
2018-04-30T10:25:55.057Z,1102.50
2018-04-30T10:26:55.087Z,1012.50
2018-04-30T10:27:55.123Z,995.63
2018-04-30T10:28:55.153Z,1108.13
2018-04-30T10:29:55.187Z,1327.50
2018-04-30T10:30:55.212Z,1395.00
2018-04-30T10:31:55.240Z,1248.75
2018-04-30T10:32:55.277Z,1119.38
2018-04-30T10:33:55.303Z,1091.25
2018-04-30T10:34:55.329Z,1018.13
2018-04-30T10:35:55.367Z,922.50
2018-04-30T10:36:55.392Z,815.63
2018-04-30T10:37:55.519Z,658.13
2018-04-30T10:38:55.445Z,585.00
2018-04-30T10:39:55.489Z,652.50
2018-04-30T10:40:55.510Z,793.13
2018-04-30T10:41:55.536Z,1035.00
2018-04-30T10:42:55.586Z,1513.13
2018-04-30T10:43:55.599Z,2255.63
2018-04-30T10:44:55.625Z,2908.13
2018-04-30T10:45:55.729Z,2103.75
2018-04-30T10:46:55.691Z,2829.38
2018-04-30T10:47:55.717Z,2193.75
2018-04-30T10:48:55.743Z,2047.50
2018-04-30T10:49:55.770Z,2137.50
2018-04-30T10:50:55.806Z,1608.75
2018-04-30T10:51:55.833Z,1631.25
2018-04-30T10:52:55.861Z,1530.00
2018-04-30T10:53:55.897Z,1485.00
2018-04-30T10:54:55.924Z,1400.63
2018-04-30T10:55:55.973Z,1468.13
2018-04-30T10:56:55.988Z,1524.38
2018-04-30T10:57:56.013Z,1963.13
2018-04-30T10:58:56.055Z,2036.25
2018-04-30T10:59:56.079Z,2041.88
2018-04-30T11:00:56.104Z,1895.63
2018-04-30T11:01:56.143Z,1760.63
2018-04-30T11:02:56.168Z,1378.13
2018-04-30T11:03:56.209Z,1265.63
2018-04-30T11:04:56.233Z,1192.50
2018-04-30T11:05:56.261Z,1085.63
2018-04-30T11:06:56.297Z,911.25
2018-04-30T11:07:56.324Z,765.00
2018-04-30T11:08:56.349Z,641.25
2018-04-30T11:09:56.388Z,585.00
2018-04-30T11:10:56.414Z,585.00
2018-04-30T11:11:56.440Z,646.88
2018-04-30T11:12:56.480Z,838.13
2018-04-30T11:14:56.530Z,1080.00
2018-04-30T11:15:56.568Z,1175.63
2018-04-30T11:16:56.597Z,1209.38
2018-04-30T11:17:56.823Z,1231.88
2018-04-30T11:18:56.647Z,1113.75
2018-04-30T11:19:56.686Z,1085.63
2018-04-30T11:20:56.711Z,1119.38
2018-04-30T11:21:56.736Z,1130.63
2018-04-30T11:22:56.762Z,1113.75
2018-04-30T11:23:56.801Z,928.13
2018-04-30T11:24:56.828Z,748.13
2018-04-30T11:25:56.854Z,669.38
2018-04-30T11:26:56.880Z,624.38
2018-04-30T11:27:56.917Z,646.88
2018-04-30T11:28:56.943Z,759.38
2018-04-30T11:29:56.969Z,916.88
2018-04-30T11:30:57.008Z,1001.25
2018-04-30T11:31:57.021Z,967.50
2018-04-30T11:32:57.048Z,995.63
2018-04-30T11:33:57.087Z,1074.38
2018-04-30T11:34:57.113Z,1119.38
2018-04-30T11:35:57.138Z,1136.25
2018-04-30T11:36:57.165Z,1119.38
2018-04-30T11:37:57.202Z,1057.50
2018-04-30T11:38:57.241Z,1035.00
2018-04-30T11:39:57.272Z,1080.00
2018-04-30T11:40:57.279Z,1153.13
2018-04-30T11:41:57.305Z,1175.63
2018-04-30T11:42:57.332Z,1074.38
2018-04-30T11:43:57.371Z,1091.25
2018-04-30T11:44:57.404Z,1080.00
2018-04-30T11:45:57.427Z,1170.00
2018-04-30T11:46:57.448Z,1130.63
2018-04-30T11:47:57.479Z,1333.13
2018-04-30T11:48:57.512Z,1513.13
2018-04-30T11:49:57.539Z,3920.63
2018-04-30T11:50:57.564Z,1923.75
2018-04-30T11:52:57.629Z,1856.25
2018-04-30T11:53:57.656Z,2182.50
2018-04-30T11:54:57.681Z,1670.63
2018-04-30T11:55:57.707Z,1974.38
2018-04-30T11:56:57.734Z,1985.63
2018-04-30T11:57:57.772Z,1434.38
2018-04-30T11:58:57.798Z,1192.50
2018-04-30T11:59:57.832Z,1006.88
2018-04-30T12:00:57.855Z,922.50
2018-04-30T12:01:57.888Z,855.00
2018-04-30T12:02:57.914Z,787.50
2018-04-30T12:03:57.940Z,748.13
2018-04-30T12:04:58.063Z,697.50
2018-04-30T12:05:58.004Z,652.50
2018-04-30T12:06:58.030Z,607.50
2018-04-30T12:07:58.069Z,596.25
2018-04-30T12:08:58.095Z,601.88
2018-04-30T12:09:58.121Z,618.75
2018-04-30T12:10:58.225Z,601.88
2018-04-30T12:11:58.184Z,556.88
2018-04-30T12:12:58.210Z,523.13
2018-04-30T12:13:58.240Z,472.50
2018-04-30T12:14:58.276Z,427.50
2018-04-30T12:15:58.292Z,421.88
2018-04-30T12:16:58.327Z,483.75
2018-04-30T12:17:58.354Z,720.00
2018-04-30T12:18:58.380Z,843.75
2018-04-30T12:19:58.406Z,1113.75
2018-04-30T12:20:58.478Z,1158.75
2018-04-30T12:21:58.551Z,1395.00
2018-04-30T12:22:58.496Z,5034.38
2018-04-30T12:23:58.521Z,2199.38
2018-04-30T12:24:58.548Z,1788.75
2018-04-30T12:25:58.573Z,2671.88
2018-04-30T12:26:58.601Z,4882.50
2018-04-30T12:27:58.625Z,4269.38
2018-04-30T12:28:58.664Z,1158.75
2018-04-30T12:29:58.690Z,950.63
2018-04-30T12:30:58.917Z,1164.38
2018-04-30T12:31:58.742Z,1861.88
2018-04-30T12:32:58.770Z,1215.00
2018-04-30T12:34:58.833Z,6260.63
2018-04-30T12:35:58.897Z,5911.88
2018-04-30T12:36:58.884Z,5518.13
2018-04-30T12:37:58.911Z,4955.63
2018-04-30T12:38:58.948Z,2542.50
2018-04-30T12:39:58.974Z,3307.50
2018-04-30T12:40:59.001Z,1203.75
2018-04-30T12:41:59.051Z,4291.88
2018-04-30T12:42:59.064Z,1243.13